CheckWX is a tool to help pilots better visualize weather data.  It is not intended as a substitute for an official pre-flight weather briefing.

15:28:36 UTC

KILN METAR
Wilmington Airpark
Wilmington, Ohio, USA
Current

35 mins ago

KILN 261454Z AUTO 16005KT 9SM CLR 26/21 A3006 RMK AO2 SLP171 60000 T02560211 58006
Observed
May-26 @ 14:54 UTC
Wind
  • 160° at 5 KTS
Visibility
9 SM
Flight Rules
VFR
Cloud Levels
  • Clear skies
Temperature
26°C / 79°F
Dewpoint
21°C / 70°F
Humidity
74%
Altimeter
30.06" Hg
Pressure
1017.92 hPa
Previous

2 hours ago

KILN 261354Z AUTO VRB03KT 10SM CLR 23/19 A3008 RMK AO2 SLP179 T02280189
Observed
May-26 @ 13:54 UTC
Wind
  • Variable at 3 KTS
Visibility
10 SM
Flight Rules
VFR
Cloud Levels
  • Clear skies
Temperature
23°C / 73°F
Dewpoint
19°C / 66°F
Humidity
78%
Altimeter
30.08" Hg
Pressure
1018.62 hPa
Previous

3 hours ago

KILN 261254Z AUTO 03005KT 10SM FEW008 21/19 A3009 RMK AO2 RAB08E25 SLP184 P0000 T02060194
Observed
May-26 @ 12:54 UTC
Wind
  • 030° at 5 KTS
Visibility
10 SM
Flight Rules
VFR
Cloud Levels
  • Few at 800' AGL
Temperature
21°C / 70°F
Dewpoint
19°C / 66°F
Humidity
88%
Altimeter
30.09" Hg
Pressure
1018.92 hPa
Current Rain
0.01"